Time;durP1;ratioP1;P1;durP2;ratioP2;P2;SDS_P1;SDS_P2;PMS_P1;PMS_P2;Temp;Humidity;BMP_temperature;BMP_pressure;BME280_temperature;BME280_humidity;BME280_pressure;Samples;Min_cycle;Max_cycle;Signal;HPM_P1;HPM_P2
2021/12/24 00:00:42;;;;;;;35.28;20.45;;;;;;;;;;5116250;28;20031;-75
2021/12/24 00:03:08;;;;;;;39.25;21.08;;;;;;;;;;5077775;28;20336;-76
2021/12/24 00:05:34;;;;;;;44.67;24.13;;;;;;;;;;5077562;28;20112;-75
2021/12/24 00:08:00;;;;;;;38.92;22.45;;;;;;;;;;5077858;28;20044;-78
2021/12/24 00:10:26;;;;;;;40.72;20.88;;;;;;;;;;5076136;28;20017;-76
2021/12/24 00:13:02;;;;;;;41.10;21.42;;;;;;;;;;5076524;28;20028;-75
2021/12/24 00:18:24;;;;;;;36.15;20.35;;;;;;;;;;5076637;28;20032;-76
2021/12/24 00:36:53;;;;;;;34.03;17.73;;;;;;;;;;5101742;28;19934;-82
2021/12/24 00:39:18;;;;;;;38.95;19.42;;;;;;;;;;5088569;28;20086;-83
2021/12/24 00:41:44;;;;;;;37.70;20.10;;;;;;;;;;5095004;28;20139;-83
2021/12/24 00:44:09;;;;;;;38.75;20.35;;;;;;;;;;5118435;27;20041;-80
2021/12/24 00:46:34;;;;;;;35.67;19.52;;;;;;;;;;5101708;28;20024;-81
2021/12/24 00:49:01;;;;;;;34.38;18.48;;;;;;;;;;5086301;28;20339;-83
2021/12/24 00:51:56;;;;;;;33.47;18.52;;;;;;;;;;5106351;28;20023;-81
2021/12/24 00:57:06;;;;;;;35.33;18.63;;;;;;;;;;5109622;28;20046;-82
2021/12/24 00:59:31;;;;;;;33.75;18.33;;;;;;;;;;5098611;28;20284;-81
2021/12/24 01:02:03;;;;;;;31.17;17.15;;;;;;;;;;5088642;28;20047;-80
2021/12/24 01:04:28;;;;;;;33.90;18.27;;;;;;;;;;5101573;28;20022;-81
2021/12/24 01:06:53;;;;;;;35.85;17.45;;;;;;;;;;5105579;28;20024;-82
2021/12/24 01:09:20;;;;;;;31.63;18.27;;;;;;;;;;5105084;28;20020;-82
2021/12/24 01:11:45;;;;;;;34.50;17.50;;;;;;;;;;5105442;28;20020;-82
2021/12/24 01:14:11;;;;;;;31.88;18.33;;;;;;;;;;5106608;28;20023;-78
2021/12/24 01:16:47;;;;;;;36.35;18.05;;;;;;;;;;5103505;28;21440;-80
2021/12/24 01:19:19;;;;;;;31.15;17.52;;;;;;;;;;5103861;28;20019;-82
2021/12/24 01:24:44;;;;;;;32.47;16.67;;;;;;;;;;5104695;28;20058;-82
2021/12/24 01:27:38;;;;;;;31.98;17.83;;;;;;;;;;5103599;28;20027;-81
2021/12/24 01:37:52;;;;;;;31.17;17.02;;;;;;;;;;5101737;28;20051;-79
2021/12/24 01:44:28;;;;;;;37.00;18.52;;;;;;;;;;5105817;28;20254;-82
2021/12/24 01:47:02;;;;;;;35.63;18.75;;;;;;;;;;5106049;28;20476;-82
2021/12/24 01:49:28;;;;;;;30.70;17.38;;;;;;;;;;5103909;28;20059;-81
2021/12/24 01:51:55;;;;;;;30.77;17.08;;;;;;;;;;5103685;28;20016;-82
2021/12/24 01:54:21;;;;;;;30.35;17.25;;;;;;;;;;5106230;28;20012;-81
2021/12/24 01:56:47;;;;;;;28.52;16.33;;;;;;;;;;5113784;28;20129;-84
2021/12/24 01:59:12;;;;;;;28.23;16.55;;;;;;;;;;5120932;28;20023;-82
2021/12/24 02:01:38;;;;;;;26.95;15.65;;;;;;;;;;5120934;28;20030;-82
2021/12/24 02:04:04;;;;;;;27.75;15.73;;;;;;;;;;5110405;28;20098;-78
2021/12/24 02:06:30;;;;;;;29.75;16.60;;;;;;;;;;5107264;28;20019;-80
2021/12/24 02:08:56;;;;;;;29.55;16.35;;;;;;;;;;5094238;28;20115;-82
2021/12/24 02:11:23;;;;;;;32.83;17.25;;;;;;;;;;5091674;28;21122;-83
2021/12/24 02:13:49;;;;;;;29.67;16.50;;;;;;;;;;5098041;28;20020;-83
2021/12/24 02:16:33;;;;;;;33.88;17.48;;;;;;;;;;5104741;28;20031;-83
2021/12/24 02:29:58;;;;;;;32.42;17.23;;;;;;;;;;5100444;28;20088;-82
2021/12/24 02:32:23;;;;;;;36.15;17.48;;;;;;;;;;5099587;28;20020;-82
2021/12/24 02:34:49;;;;;;;30.08;16.83;;;;;;;;;;5081413;28;20056;-82
2021/12/24 02:37:15;;;;;;;29.52;16.25;;;;;;;;;;5104996;28;20050;-80
2021/12/24 02:39:40;;;;;;;29.10;15.80;;;;;;;;;;5093534;28;20324;-80
2021/12/24 02:42:13;;;;;;;29.38;16.00;;;;;;;;;;5100608;28;20037;-82
2021/12/24 02:44:38;;;;;;;29.40;15.77;;;;;;;;;;5099654;28;20020;-82
2021/12/24 02:47:08;;;;;;;26.85;15.45;;;;;;;;;;5105101;28;20381;-80
2021/12/24 02:55:08;;;;;;;26.23;15.25;;;;;;;;;;5098407;28;20050;-81
2021/12/24 02:57:35;;;;;;;26.55;14.98;;;;;;;;;;5119029;28;20028;-80
2021/12/24 03:00:07;;;;;;;28.67;15.13;;;;;;;;;;5118737;28;20312;-79
2021/12/24 03:02:34;;;;;;;25.30;14.27;;;;;;;;;;5086250;28;20216;-82
2021/12/24 03:05:01;;;;;;;26.02;14.13;;;;;;;;;;5102684;28;20012;-82
2021/12/24 03:07:27;;;;;;;23.58;14.15;;;;;;;;;;5085074;28;20361;-78
2021/12/24 03:09:54;;;;;;;24.52;13.27;;;;;;;;;;5084210;28;20024;-83
2021/12/24 03:12:19;;;;;;;26.48;13.30;;;;;;;;;;5104512;28;20032;-78
2021/12/24 03:14:45;;;;;;;23.88;13.45;;;;;;;;;;5103767;28;20020;-82
2021/12/24 03:17:15;;;;;;;29.00;14.82;;;;;;;;;;5100746;28;20032;-81
2021/12/24 03:19:40;;;;;;;28.45;13.52;;;;;;;;;;5102840;28;20249;-82
2021/12/24 03:24:52;;;;;;;29.00;14.98;;;;;;;;;;5078180;28;20202;-82
2021/12/24 03:27:17;;;;;;;24.38;13.27;;;;;;;;;;5101683;28;20320;-83
2021/12/24 03:29:43;;;;;;;26.88;14.15;;;;;;;;;;5082908;28;20023;-83
2021/12/24 03:32:09;;;;;;;26.83;14.32;;;;;;;;;;5104141;28;20023;-83
2021/12/24 03:34:35;;;;;;;25.15;13.50;;;;;;;;;;5102132;28;20032;-83
2021/12/24 03:37:02;;;;;;;23.23;13.10;;;;;;;;;;5105052;28;20023;-83
2021/12/24 03:39:27;;;;;;;25.52;13.95;;;;;;;;;;5102120;28;20031;-83
2021/12/24 03:41:53;;;;;;;27.25;14.43;;;;;;;;;;5102548;28;20083;-82
2021/12/24 03:44:19;;;;;;;23.77;13.20;;;;;;;;;;5114279;28;20028;-81
2021/12/24 03:46:59;;;;;;;29.65;14.80;;;;;;;;;;5108439;28;20016;-83
2021/12/24 03:52:31;;;;;;;23.45;12.38;;;;;;;;;;5096314;28;20031;-83
2021/12/24 03:54:58;;;;;;;22.85;12.68;;;;;;;;;;5100558;28;20478;-82
2021/12/24 03:57:23;;;;;;;24.77;12.82;;;;;;;;;;5096297;28;20308;-80
2021/12/24 03:59:48;;;;;;;24.85;12.65;;;;;;;;;;5099878;28;20419;-82
2021/12/24 04:02:14;;;;;;;21.35;12.05;;;;;;;;;;5096484;28;20019;-82
2021/12/24 04:04:39;;;;;;;21.15;12.25;;;;;;;;;;5103603;28;20262;-81
2021/12/24 04:07:06;;;;;;;20.40;11.35;;;;;;;;;;5092530;28;20019;-82
2021/12/24 04:09:32;;;;;;;20.58;11.13;;;;;;;;;;5099332;28;20457;-83
2021/12/24 04:11:57;;;;;;;22.15;11.25;;;;;;;;;;5103919;28;20112;-82
2021/12/24 04:14:23;;;;;;;25.25;11.77;;;;;;;;;;5097830;28;20020;-81
2021/12/24 04:16:49;;;;;;;22.40;11.50;;;;;;;;;;5105663;28;20046;-81
2021/12/24 04:27:16;;;;;;;18.92;10.93;;;;;;;;;;5105976;28;20028;-82
2021/12/24 04:29:41;;;;;;;23.92;11.73;;;;;;;;;;5106094;28;20090;-83
2021/12/24 04:32:35;;;;;;;21.02;11.85;;;;;;;;;;5105718;28;20031;-82
2021/12/24 04:35:04;;;;;;;22.77;11.43;;;;;;;;;;5105082;28;20038;-82
2021/12/24 05:05:03;;;;;;;22.33;11.20;;;;;;;;;;5061076;28;20252;-82
2021/12/24 05:09:53;;;;;;;22.63;12.05;;;;;;;;;;5104397;28;20028;-82
2021/12/24 05:12:19;;;;;;;19.17;10.88;;;;;;;;;;5106545;28;20351;-82
2021/12/24 05:14:44;;;;;;;20.17;11.30;;;;;;;;;;5104891;28;20012;-82
2021/12/24 05:22:46;;;;;;;20.47;10.17;;;;;;;;;;5101690;28;20384;-81
2021/12/24 05:25:11;;;;;;;16.73;10.10;;;;;;;;;;5105251;28;20024;-81
2021/12/24 05:27:37;;;;;;;18.48;10.38;;;;;;;;;;5104343;28;20028;-82
2021/12/24 05:30:04;;;;;;;18.15;10.45;;;;;;;;;;5102149;28;20261;-79
2021/12/24 05:32:29;;;;;;;21.42;11.05;;;;;;;;;;5097533;28;20036;-81
2021/12/24 05:34:55;;;;;;;19.63;11.07;;;;;;;;;;5102345;28;20356;-81
2021/12/24 05:37:20;;;;;;;21.65;10.50;;;;;;;;;;5086729;28;20032;-79
2021/12/24 05:39:46;;;;;;;19.42;10.45;;;;;;;;;;5104501;28;20024;-80
2021/12/24 05:42:11;;;;;;;20.42;10.55;;;;;;;;;;5103033;28;20115;-80
2021/12/24 05:44:37;;;;;;;20.05;10.98;;;;;;;;;;5103291;28;20015;-79
2021/12/24 05:47:03;;;;;;;18.67;10.40;;;;;;;;;;5098680;28;20186;-79
2021/12/24 05:49:28;;;;;;;18.70;10.02;;;;;;;;;;5101617;28;20032;-79
2021/12/24 05:51:53;;;;;;;19.58;10.75;;;;;;;;;;5096316;28;20023;-79
2021/12/24 05:54:19;;;;;;;22.60;11.45;;;;;;;;;;5097083;28;20016;-80
2021/12/24 05:56:45;;;;;;;21.17;12.13;;;;;;;;;;5102520;28;20036;-81
2021/12/24 05:59:11;;;;;;;19.27;10.45;;;;;;;;;;5100053;28;20015;-78
2021/12/24 06:01:37;;;;;;;18.83;10.25;;;;;;;;;;5096499;28;20029;-78
2021/12/24 06:04:02;;;;;;;19.35;10.10;;;;;;;;;;5107776;28;20019;-80
2021/12/24 06:06:28;;;;;;;21.00;10.95;;;;;;;;;;5092099;28;20069;-79
2021/12/24 06:08:53;;;;;;;19.95;10.43;;;;;;;;;;5097345;28;20012;-80
2021/12/24 06:11:19;;;;;;;19.17;10.55;;;;;;;;;;5094439;28;20375;-79
2021/12/24 06:13:46;;;;;;;17.80;9.75;;;;;;;;;;5091533;28;20285;-79
2021/12/24 06:16:11;;;;;;;19.30;9.35;;;;;;;;;;5089655;28;20019;-80
2021/12/24 06:18:40;;;;;;;16.83;9.50;;;;;;;;;;5091601;28;20278;-79
2021/12/24 06:21:06;;;;;;;20.50;10.45;;;;;;;;;;5097971;28;20026;-81
2021/12/24 06:23:33;;;;;;;17.90;9.52;;;;;;;;;;5093535;28;20041;-82
2021/12/24 06:26:00;;;;;;;21.40;9.15;;;;;;;;;;5097818;28;20034;-83
2021/12/24 06:28:26;;;;;;;17.45;9.15;;;;;;;;;;5088227;28;20095;-81
2021/12/24 06:30:53;;;;;;;21.95;10.50;;;;;;;;;;5092916;28;20082;-83
2021/12/24 06:33:19;;;;;;;18.45;9.82;;;;;;;;;;5090276;28;20024;-84
2021/12/24 06:35:45;;;;;;;18.95;10.13;;;;;;;;;;5093990;28;20096;-84
2021/12/24 06:38:11;;;;;;;21.67;10.60;;;;;;;;;;5091045;28;20024;-85
2021/12/24 06:40:37;;;;;;;21.42;11.50;;;;;;;;;;5095630;28;20044;-84
2021/12/24 06:43:03;;;;;;;26.52;11.23;;;;;;;;;;5096369;28;20320;-84
2021/12/24 06:45:29;;;;;;;20.63;11.32;;;;;;;;;;5125942;28;20015;-83
2021/12/24 06:47:57;;;;;;;19.77;10.52;;;;;;;;;;5128919;28;20041;-84
2021/12/24 06:50:23;;;;;;;20.73;11.40;;;;;;;;;;5117281;28;20020;-82
2021/12/24 06:52:49;;;;;;;19.80;10.68;;;;;;;;;;5112709;28;20024;-84
2021/12/24 06:55:16;;;;;;;20.15;10.90;;;;;;;;;;5119784;28;20081;-85
2021/12/24 06:57:43;;;;;;;18.25;11.35;;;;;;;;;;5119605;28;20039;-84
2021/12/24 07:00:11;;;;;;;25.17;13.48;;;;;;;;;;5101137;28;20027;-79
2021/12/24 07:02:37;;;;;;;21.65;11.82;;;;;;;;;;5107650;28;20024;-84
2021/12/24 07:05:03;;;;;;;22.65;11.57;;;;;;;;;;5119366;28;20055;-83
2021/12/24 07:07:28;;;;;;;26.13;12.95;;;;;;;;;;5114529;28;20026;-83
2021/12/24 07:09:53;;;;;;;21.65;11.13;;;;;;;;;;5115871;28;20023;-81
2021/12/24 07:12:19;;;;;;;20.85;11.60;;;;;;;;;;5109059;28;20313;-81
2021/12/24 07:14:46;;;;;;;21.02;11.30;;;;;;;;;;5117073;28;20185;-81
2021/12/24 07:17:12;;;;;;;21.33;11.23;;;;;;;;;;5119689;28;20050;-84
2021/12/24 07:19:37;;;;;;;21.35;11.02;;;;;;;;;;5119871;28;20024;-83
2021/12/24 07:22:03;;;;;;;21.63;10.90;;;;;;;;;;5108403;28;20332;-82
2021/12/24 07:24:28;;;;;;;23.55;12.68;;;;;;;;;;5119516;28;20353;-82
2021/12/24 07:26:54;;;;;;;20.92;11.00;;;;;;;;;;5119819;28;20270;-82
2021/12/24 07:29:19;;;;;;;16.98;10.82;;;;;;;;;;5120801;28;20133;-82
2021/12/24 07:31:45;;;;;;;22.38;11.52;;;;;;;;;;5110699;28;20436;-82
2021/12/24 07:34:10;;;;;;;23.40;11.27;;;;;;;;;;5108387;28;20028;-82
2021/12/24 07:36:36;;;;;;;27.55;15.70;;;;;;;;;;5120620;28;20021;-83
2021/12/24 07:39:01;;;;;;;32.08;16.80;;;;;;;;;;5115147;28;20051;-83
2021/12/24 07:41:27;;;;;;;33.90;17.42;;;;;;;;;;5123472;28;20027;-80
2021/12/24 07:43:53;;;;;;;34.08;17.10;;;;;;;;;;5113491;28;20027;-82
2021/12/24 07:46:19;;;;;;;28.60;15.77;;;;;;;;;;5123640;28;20039;-83
2021/12/24 07:48:48;;;;;;;29.85;15.73;;;;;;;;;;5101321;28;20203;-81
2021/12/24 07:54:00;;;;;;;26.70;14.27;;;;;;;;;;5105947;28;20030;-83
2021/12/24 07:56:30;;;;;;;24.42;13.60;;;;;;;;;;5119350;28;20023;-83
2021/12/24 07:58:56;;;;;;;25.90;13.25;;;;;;;;;;5103602;28;20035;-80
2021/12/24 08:01:25;;;;;;;26.27;12.27;;;;;;;;;;5123294;28;20095;-78
2021/12/24 08:03:52;;;;;;;24.20;12.07;;;;;;;;;;5122993;28;20034;-78
2021/12/24 08:06:19;;;;;;;24.88;12.68;;;;;;;;;;5122902;28;20019;-84
2021/12/24 08:08:44;;;;;;;23.45;12.18;;;;;;;;;;5122960;28;20224;-81
2021/12/24 08:11:10;;;;;;;21.38;11.75;;;;;;;;;;5122898;28;20039;-84
2021/12/24 08:13:35;;;;;;;21.67;11.20;;;;;;;;;;5108942;28;20089;-82
2021/12/24 08:16:01;;;;;;;24.90;11.73;;;;;;;;;;5112264;28;20028;-83
2021/12/24 08:18:26;;;;;;;19.98;10.40;;;;;;;;;;5122953;28;20023;-83
2021/12/24 08:20:51;;;;;;;19.75;11.07;;;;;;;;;;5120200;28;20054;-80
2021/12/24 08:23:17;;;;;;;21.95;10.90;;;;;;;;;;5122833;28;20080;-86
2021/12/24 08:25:42;;;;;;;24.27;11.85;;;;;;;;;;5122707;28;20020;-82
2021/12/24 08:28:07;;;;;;;22.90;12.02;;;;;;;;;;5122506;28;20026;-78
2021/12/24 08:30:33;;;;;;;26.45;12.75;;;;;;;;;;5122808;28;20362;-84
2021/12/24 08:33:00;;;;;;;24.85;13.57;;;;;;;;;;5110979;28;20050;-82
2021/12/24 08:35:27;;;;;;;24.33;13.02;;;;;;;;;;5122364;28;20035;-83
2021/12/24 08:37:53;;;;;;;25.50;12.65;;;;;;;;;;5104113;28;20065;-83
2021/12/24 08:40:19;;;;;;;24.30;12.23;;;;;;;;;;5121773;28;20340;-83
2021/12/24 08:42:44;;;;;;;22.65;12.50;;;;;;;;;;5121627;28;20016;-85
2021/12/24 08:45:11;;;;;;;23.52;12.32;;;;;;;;;;5121793;28;20091;-81
2021/12/24 08:47:36;;;;;;;21.10;11.70;;;;;;;;;;5113850;28;20083;-83
2021/12/24 08:50:05;;;;;;;19.48;11.85;;;;;;;;;;5117285;28;20217;-83
2021/12/24 08:52:30;;;;;;;22.50;10.80;;;;;;;;;;5117982;28;20208;-84
2021/12/24 08:54:56;;;;;;;21.02;12.18;;;;;;;;;;5121926;28;20020;-82
2021/12/24 08:57:21;;;;;;;23.95;12.25;;;;;;;;;;5121695;28;20031;-82
2021/12/24 08:59:46;;;;;;;23.23;12.70;;;;;;;;;;5112700;28;20028;-82
2021/12/24 09:02:12;;;;;;;23.80;12.45;;;;;;;;;;5105916;28;20035;-86
2021/12/24 09:04:37;;;;;;;24.67;12.75;;;;;;;;;;5121844;28;20036;-84
2021/12/24 09:07:03;;;;;;;21.30;11.68;;;;;;;;;;5117977;28;20213;-85
2021/12/24 09:09:29;;;;;;;22.52;12.70;;;;;;;;;;5113396;28;20042;-86
2021/12/24 09:11:55;;;;;;;21.30;12.05;;;;;;;;;;5114987;28;20031;-85
2021/12/24 09:14:21;;;;;;;21.40;12.20;;;;;;;;;;5102180;28;20032;-83
2021/12/24 09:16:48;;;;;;;20.27;11.90;;;;;;;;;;5121748;28;20028;-86
2021/12/24 09:19:18;;;;;;;21.98;13.25;;;;;;;;;;5121497;28;20027;-78
2021/12/24 09:21:43;;;;;;;19.92;11.07;;;;;;;;;;5115005;28;20030;-85
2021/12/24 09:24:09;;;;;;;14.57;9.13;;;;;;;;;;5115640;28;20209;-80
2021/12/24 09:26:36;;;;;;;14.52;8.65;;;;;;;;;;5105005;28;20036;-85
2021/12/24 09:29:05;;;;;;;16.88;9.20;;;;;;;;;;5070792;28;20267;-81
2021/12/24 09:31:30;;;;;;;15.23;8.85;;;;;;;;;;5104378;28;20054;-83
2021/12/24 09:33:56;;;;;;;15.60;8.95;;;;;;;;;;5101838;28;20028;-83
2021/12/24 09:36:27;;;;;;;16.77;9.30;;;;;;;;;;5117137;28;20027;-85
2021/12/24 09:38:56;;;;;;;16.35;9.38;;;;;;;;;;5102981;28;20031;-85
2021/12/24 09:41:23;;;;;;;18.50;9.43;;;;;;;;;;5121181;28;20023;-81
2021/12/24 09:43:48;;;;;;;17.05;9.80;;;;;;;;;;5121154;28;20090;-82
2021/12/24 09:46:14;;;;;;;16.58;9.85;;;;;;;;;;5112064;28;20028;-80
2021/12/24 09:48:40;;;;;;;16.80;9.70;;;;;;;;;;5118548;28;20019;-80
2021/12/24 09:51:06;;;;;;;18.38;10.02;;;;;;;;;;5126527;28;20031;-82
2021/12/24 09:53:32;;;;;;;21.17;9.88;;;;;;;;;;5122492;28;20243;-83
2021/12/24 09:55:57;;;;;;;19.40;10.13;;;;;;;;;;5120162;28;20073;-88
2021/12/24 09:58:23;;;;;;;19.90;9.52;;;;;;;;;;5097500;28;20406;-88
2021/12/24 10:00:49;;;;;;;16.77;9.82;;;;;;;;;;5119990;28;20026;-85
2021/12/24 10:03:35;;;;;;;18.45;9.70;;;;;;;;;;5111372;28;20350;-87
2021/12/24 10:06:02;;;;;;;18.73;9.85;;;;;;;;;;5102746;28;20020;-84
2021/12/24 10:08:28;;;;;;;18.73;10.57;;;;;;;;;;5104602;28;20020;-87
2021/12/24 10:11:07;;;;;;;20.17;9.98;;;;;;;;;;5111960;28;20073;-86
2021/12/24 10:13:34;;;;;;;19.33;9.38;;;;;;;;;;5119379;28;20016;-88
2021/12/24 10:16:04;;;;;;;17.77;9.48;;;;;;;;;;5103032;28;20065;-84
2021/12/24 10:18:45;;;;;;;18.88;9.90;;;;;;;;;;5098782;28;20025;-86
2021/12/24 10:21:22;;;;;;;18.98;9.80;;;;;;;;;;5101618;28;20098;-85
2021/12/24 10:23:53;;;;;;;19.48;10.13;;;;;;;;;;5094940;28;20012;-85
2021/12/24 10:26:31;;;;;;;19.73;10.00;;;;;;;;;;5104169;28;20031;-88
2021/12/24 10:29:07;;;;;;;19.73;10.57;;;;;;;;;;5101168;28;20051;-87
2021/12/24 10:31:35;;;;;;;19.58;10.55;;;;;;;;;;5105110;28;20058;-83
2021/12/24 10:34:20;;;;;;;22.88;11.35;;;;;;;;;;5081500;28;20051;-81
2021/12/24 10:37:22;;;;;;;18.75;10.13;;;;;;;;;;5102036;28;20031;-84
2021/12/24 10:40:03;;;;;;;20.50;10.32;;;;;;;;;;5099618;28;20350;-82
2021/12/24 10:42:35;;;;;;;20.65;10.48;;;;;;;;;;5081266;28;20157;-79
2021/12/24 10:45:04;;;;;;;18.17;9.63;;;;;;;;;;5105272;28;20027;-79
2021/12/24 10:47:33;;;;;;;16.58;9.60;;;;;;;;;;5107973;28;20012;-79
2021/12/24 10:55:38;;;;;;;21.50;11.15;;;;;;;;;;5103235;28;20079;-79
2021/12/24 10:58:06;;;;;;;21.13;10.40;;;;;;;;;;5100980;28;20039;-79
2021/12/24 11:00:39;;;;;;;20.88;9.73;;;;;;;;;;5107375;28;20023;-79
2021/12/24 11:03:09;;;;;;;20.25;10.55;;;;;;;;;;5102557;28;20060;-78
2021/12/24 11:05:43;;;;;;;20.17;9.52;;;;;;;;;;5103358;28;20024;-79
2021/12/24 11:08:21;;;;;;;19.48;10.20;;;;;;;;;;5108639;28;20054;-79
2021/12/24 11:10:50;;;;;;;22.58;9.82;;;;;;;;;;5107877;28;20116;-79
2021/12/24 11:13:27;;;;;;;17.65;9.45;;;;;;;;;;5107403;28;20020;-80
2021/12/24 11:15:53;;;;;;;20.98;9.45;;;;;;;;;;5089481;28;20146;-79
2021/12/24 11:18:36;;;;;;;19.67;9.93;;;;;;;;;;5106449;28;20020;-79
2021/12/24 11:21:12;;;;;;;18.30;9.80;;;;;;;;;;5084190;28;20285;-79
2021/12/24 11:23:40;;;;;;;18.98;10.45;;;;;;;;;;5088835;28;20024;-79
2021/12/24 11:26:07;;;;;;;19.50;9.75;;;;;;;;;;5090021;28;20226;-79
2021/12/24 11:28:34;;;;;;;18.13;9.93;;;;;;;;;;5087543;28;20052;-79
2021/12/24 11:31:02;;;;;;;20.67;10.45;;;;;;;;;;5093210;28;20327;-78
2021/12/24 11:33:30;;;;;;;19.48;10.13;;;;;;;;;;5081206;28;20333;-78
2021/12/24 11:35:58;;;;;;;20.83;10.52;;;;;;;;;;5078231;28;20038;-78
2021/12/24 11:38:29;;;;;;;27.38;11.50;;;;;;;;;;5077852;28;20024;-79
2021/12/24 11:40:57;;;;;;;19.55;10.07;;;;;;;;;;5091367;28;20044;-79
2021/12/24 11:43:30;;;;;;;19.92;10.45;;;;;;;;;;5079526;28;20028;-79
2021/12/24 11:46:01;;;;;;;20.10;9.65;;;;;;;;;;5118962;28;20060;-79
2021/12/24 11:48:30;;;;;;;18.50;10.45;;;;;;;;;;5100137;28;20339;-77
2021/12/24 11:50:56;;;;;;;20.08;9.20;;;;;;;;;;5091907;28;20143;-77
2021/12/24 11:53:21;;;;;;;17.30;9.25;;;;;;;;;;5064048;28;20340;-77
2021/12/24 11:55:49;;;;;;;17.08;9.27;;;;;;;;;;5070931;28;20109;-85
2021/12/24 11:58:25;;;;;;;20.15;9.70;;;;;;;;;;5071513;28;20030;-78
2021/12/24 12:00:56;;;;;;;18.70;10.13;;;;;;;;;;5085194;28;20028;-78
2021/12/24 12:03:38;;;;;;;19.77;9.52;;;;;;;;;;5087076;28;20113;-78
2021/12/24 12:06:11;;;;;;;19.83;10.02;;;;;;;;;;5084106;28;20027;-78
2021/12/24 12:08:41;;;;;;;17.90;9.10;;;;;;;;;;5094169;28;20020;-78
2021/12/24 12:11:20;;;;;;;18.25;9.38;;;;;;;;;;5119251;28;20036;-77
2021/12/24 12:14:05;;;;;;;16.65;8.98;;;;;;;;;;5103508;28;20058;-77
2021/12/24 12:16:39;;;;;;;17.53;8.70;;;;;;;;;;5105780;28;20399;-77
2021/12/24 12:19:33;;;;;;;17.77;9.18;;;;;;;;;;5095144;28;20099;-77
2021/12/24 12:25:02;;;;;;;17.88;8.82;;;;;;;;;;5112512;28;20042;-74
2021/12/24 12:27:45;;;;;;;15.18;8.38;;;;;;;;;;5116327;28;20059;-77
2021/12/24 12:30:17;;;;;;;15.45;7.97;;;;;;;;;;5103994;28;20321;-77
2021/12/24 12:32:43;;;;;;;17.73;9.23;;;;;;;;;;5096425;28;20027;-78
2021/12/24 12:35:09;;;;;;;15.30;9.20;;;;;;;;;;5122002;28;20110;-79
2021/12/24 12:37:50;;;;;;;17.88;9.30;;;;;;;;;;5100780;28;20461;-76
2021/12/24 12:40:15;;;;;;;15.23;8.18;;;;;;;;;;5121206;28;20024;-77
2021/12/24 12:42:57;;;;;;;17.25;8.77;;;;;;;;;;5100384;28;20047;-77
2021/12/24 12:45:43;;;;;;;14.73;8.18;;;;;;;;;;5100944;28;20137;-79
2021/12/24 12:48:11;;;;;;;16.27;8.77;;;;;;;;;;5095415;28;20019;-77
2021/12/24 12:50:40;;;;;;;15.43;8.30;;;;;;;;;;5103492;28;20020;-77
2021/12/24 12:53:25;;;;;;;16.80;9.27;;;;;;;;;;5113410;28;20316;-78
2021/12/24 12:56:22;;;;;;;16.60;8.82;;;;;;;;;;5098484;28;20024;-78
2021/12/24 12:59:04;;;;;;;16.30;8.88;;;;;;;;;;5094533;28;20032;-77
2021/12/24 13:01:30;;;;;;;16.23;8.90;;;;;;;;;;5096256;28;20031;-77
2021/12/24 13:03:55;;;;;;;19.88;9.65;;;;;;;;;;5119649;28;20032;-78
2021/12/24 13:06:36;;;;;;;16.85;8.60;;;;;;;;;;5121747;28;20051;-77
2021/12/24 13:09:13;;;;;;;21.98;9.25;;;;;;;;;;5096183;28;20028;-77
2021/12/24 13:11:41;;;;;;;16.73;8.95;;;;;;;;;;5105350;28;20023;-77
2021/12/24 13:14:07;;;;;;;18.88;9.90;;;;;;;;;;5080769;28;20031;-77
2021/12/24 13:16:37;;;;;;;20.23;9.73;;;;;;;;;;5095397;28;20619;-77
2021/12/24 13:24:17;;;;;;;19.45;9.90;;;;;;;;;;5096175;28;20304;-81
2021/12/24 13:26:44;;;;;;;19.25;9.30;;;;;;;;;;5103283;28;20031;-81
2021/12/24 13:29:16;;;;;;;17.73;9.43;;;;;;;;;;5092216;28;20024;-82
2021/12/24 13:31:50;;;;;;;16.33;9.68;;;;;;;;;;5100812;28;20251;-81
2021/12/24 13:34:16;;;;;;;17.38;9.07;;;;;;;;;;5101548;28;20028;-81
2021/12/24 13:36:42;;;;;;;15.63;9.45;;;;;;;;;;5092090;28;20099;-80
2021/12/24 13:39:07;;;;;;;15.02;8.68;;;;;;;;;;5098967;28;20039;-84
2021/12/24 13:41:32;;;;;;;13.00;8.23;;;;;;;;;;5120506;28;20024;-80
2021/12/24 13:44:01;;;;;;;14.35;8.32;;;;;;;;;;5095831;28;20027;-80
2021/12/24 13:46:29;;;;;;;15.98;8.85;;;;;;;;;;5078941;28;20520;-84
2021/12/24 13:54:33;;;;;;;19.35;9.18;;;;;;;;;;5115368;28;20030;-80
2021/12/24 13:56:59;;;;;;;16.00;9.15;;;;;;;;;;5100935;28;20031;-80
2021/12/24 13:59:25;;;;;;;20.55;10.30;;;;;;;;;;5103915;28;20027;-80
2021/12/24 14:01:51;;;;;;;20.25;10.57;;;;;;;;;;5081877;28;20024;-80
2021/12/24 14:04:19;;;;;;;19.33;10.00;;;;;;;;;;5103113;28;20077;-81
2021/12/24 14:06:51;;;;;;;20.75;9.95;;;;;;;;;;5102195;28;20247;-80
2021/12/24 14:09:25;;;;;;;18.83;9.73;;;;;;;;;;5104043;28;20054;-80
2021/12/24 14:11:53;;;;;;;18.20;9.50;;;;;;;;;;5103921;28;20089;-82
2021/12/24 14:14:29;;;;;;;20.73;9.88;;;;;;;;;;5106508;28;20336;-80
2021/12/24 14:19:36;;;;;;;16.83;9.00;;;;;;;;;;5093150;28;20374;-78
2021/12/24 14:22:13;;;;;;;19.25;9.73;;;;;;;;;;5101436;28;20019;-80
2021/12/24 14:25:13;;;;;;;19.83;10.35;;;;;;;;;;5104452;28;20020;-81
2021/12/24 14:27:44;;;;;;;20.05;10.70;;;;;;;;;;5106508;28;20028;-82
2021/12/24 14:30:15;;;;;;;19.08;10.60;;;;;;;;;;5084051;28;20328;-82
2021/12/24 14:32:42;;;;;;;19.63;10.85;;;;;;;;;;5098523;28;20328;-81
2021/12/24 14:35:24;;;;;;;18.60;10.23;;;;;;;;;;5095588;28;20051;-81
2021/12/24 14:37:54;;;;;;;17.60;10.25;;;;;;;;;;5104707;28;20402;-80
2021/12/24 14:40:25;;;;;;;19.70;9.80;;;;;;;;;;5105415;28;20290;-81
2021/12/24 14:42:52;;;;;;;19.30;10.75;;;;;;;;;;5097781;28;20044;-81
2021/12/24 14:45:25;;;;;;;18.15;10.18;;;;;;;;;;5081584;28;20217;-81
2021/12/24 14:48:13;;;;;;;21.38;10.13;;;;;;;;;;5080070;28;20103;-83
2021/12/24 14:50:57;;;;;;;18.80;9.85;;;;;;;;;;5100928;28;20040;-84
2021/12/24 14:53:27;;;;;;;20.42;10.52;;;;;;;;;;5087124;28;20023;-81
2021/12/24 14:55:54;;;;;;;19.10;10.13;;;;;;;;;;5119915;28;20316;-79
2021/12/24 14:58:33;;;;;;;18.45;9.00;;;;;;;;;;5101638;28;20051;-80
2021/12/24 15:01:04;;;;;;;16.30;8.93;;;;;;;;;;5103364;28;20020;-83
2021/12/24 15:03:33;;;;;;;16.40;9.27;;;;;;;;;;5105954;28;20039;-83
2021/12/24 15:05:59;;;;;;;17.02;9.85;;;;;;;;;;5078193;28;20197;-82
2021/12/24 15:08:28;;;;;;;16.90;9.85;;;;;;;;;;5105149;28;20039;-82
2021/12/24 15:11:04;;;;;;;19.13;9.90;;;;;;;;;;5084996;28;20027;-83
2021/12/24 15:13:30;;;;;;;20.20;10.90;;;;;;;;;;5101743;28;20115;-80
2021/12/24 15:15:58;;;;;;;18.92;10.95;;;;;;;;;;5101361;28;20046;-81
2021/12/24 15:18:23;;;;;;;19.20;10.18;;;;;;;;;;5102758;28;20083;-81
2021/12/24 15:20:50;;;;;;;22.13;11.63;;;;;;;;;;5103518;28;20024;-80
2021/12/24 15:23:15;;;;;;;18.13;10.73;;;;;;;;;;5076480;28;20876;-82
2021/12/24 15:25:45;;;;;;;18.70;10.35;;;;;;;;;;5108049;28;20268;-93
2021/12/24 15:28:12;;;;;;;19.05;9.88;;;;;;;;;;5091427;28;20034;-82
2021/12/24 15:30:39;;;;;;;22.85;11.60;;;;;;;;;;5078134;28;20070;-83
2021/12/24 15:33:06;;;;;;;21.42;11.50;;;;;;;;;;5096898;28;20107;-83
2021/12/24 15:35:32;;;;;;;20.30;11.13;;;;;;;;;;5090889;28;20017;-81
2021/12/24 15:37:59;;;;;;;20.95;11.65;;;;;;;;;;5091656;28;20068;-81
2021/12/24 15:40:25;;;;;;;19.55;11.30;;;;;;;;;;5093079;28;20020;-82
2021/12/24 15:42:51;;;;;;;24.10;12.38;;;;;;;;;;5093298;28;20066;-85
2021/12/24 15:45:16;;;;;;;22.17;12.10;;;;;;;;;;5094304;28;20051;-82
2021/12/24 15:47:41;;;;;;;19.55;10.43;;;;;;;;;;5095097;28;20023;-85
2021/12/24 15:50:07;;;;;;;19.90;11.23;;;;;;;;;;5097176;28;20016;-80
2021/12/24 15:52:33;;;;;;;21.92;11.82;;;;;;;;;;5099108;28;20417;-82
2021/12/24 15:54:58;;;;;;;19.83;10.98;;;;;;;;;;5094674;28;20601;-81
2021/12/24 15:57:24;;;;;;;17.80;10.10;;;;;;;;;;5098842;28;20089;-81
2021/12/24 15:59:49;;;;;;;20.52;11.00;;;;;;;;;;5075314;28;20016;-83
2021/12/24 16:02:14;;;;;;;23.10;11.10;;;;;;;;;;5095286;28;20622;-81
2021/12/24 16:04:40;;;;;;;21.08;11.10;;;;;;;;;;5096210;28;20019;-81
2021/12/24 16:07:06;;;;;;;23.02;11.68;;;;;;;;;;5096192;28;20024;-81
2021/12/24 16:09:31;;;;;;;22.23;11.68;;;;;;;;;;5095909;28;20020;-82
2021/12/24 16:11:57;;;;;;;23.55;12.23;;;;;;;;;;5094870;28;20028;-82
2021/12/24 16:14:23;;;;;;;19.30;10.80;;;;;;;;;;5094067;28;20020;-84
2021/12/24 16:16:49;;;;;;;23.10;12.68;;;;;;;;;;5095920;28;20166;-82
2021/12/24 16:19:16;;;;;;;25.55;13.82;;;;;;;;;;5096279;28;20125;-80
2021/12/24 16:21:42;;;;;;;24.13;12.07;;;;;;;;;;5091517;28;20042;-80
2021/12/24 16:24:08;;;;;;;21.35;13.25;;;;;;;;;;5089127;28;20024;-81
2021/12/24 16:26:34;;;;;;;24.73;13.70;;;;;;;;;;5071487;28;20461;-82
2021/12/24 16:29:00;;;;;;;25.42;12.38;;;;;;;;;;5086811;28;20085;-82
2021/12/24 16:31:26;;;;;;;24.27;12.68;;;;;;;;;;5096633;28;20028;-82
2021/12/24 16:33:52;;;;;;;19.40;12.23;;;;;;;;;;5092824;28;20027;-87
2021/12/24 16:36:24;;;;;;;21.55;12.40;;;;;;;;;;5097664;28;20032;-88